sensor_id;sensor_type;location;lat;lon;timestamp;temperature;humidity
37285;DHT22;23172;53.550;9.964;2023-11-19T00:02:48;7.10;99.90
37285;DHT22;23172;53.550;9.964;2023-11-19T00:07:51;7.00;99.90
37285;DHT22;23172;53.550;9.964;2023-11-19T00:12:53;7.10;99.90
37285;DHT22;23172;53.550;9.964;2023-11-19T00:17:54;7.10;99.90
37285;DHT22;23172;53.550;9.964;2023-11-19T00:22:58;7.10;99.90
37285;DHT22;23172;53.550;9.964;2023-11-19T00:38:05;7.10;99.90
37285;DHT22;23172;53.550;9.964;2023-11-19T00:43:07;7.10;99.90
37285;DHT22;23172;53.550;9.964;2023-11-19T00:48:09;7.10;99.90
37285;DHT22;23172;53.550;9.964;2023-11-19T00:53:12;7.10;99.90
37285;DHT22;23172;53.550;9.964;2023-11-19T00:58:14;7.00;99.90
37285;DHT22;23172;53.550;9.964;2023-11-19T01:03:18;7.00;99.90
37285;DHT22;23172;53.550;9.964;2023-11-19T01:08:21;7.00;99.90
37285;DHT22;23172;53.550;9.964;2023-11-19T03:50:12;7.00;99.90
37285;DHT22;23172;53.550;9.964;2023-11-19T03:55:16;8.10;99.90
37285;DHT22;23172;53.550;9.964;2023-11-19T05:46:19;8.10;99.90
37285;DHT22;23172;53.550;9.964;2023-11-19T06:06:37;9.50;99.90
37285;DHT22;23172;53.550;9.964;2023-11-19T06:11:39;10.10;99.90
37285;DHT22;23172;53.550;9.964;2023-11-19T06:41:54;10.30;99.90
37285;DHT22;23172;53.550;9.964;2023-11-19T06:46:57;10.80;99.90
37285;DHT22;23172;53.550;9.964;2023-11-19T06:51:59;10.90;99.90
37285;DHT22;23172;53.550;9.964;2023-11-19T06:57:01;11.00;99.90
37285;DHT22;23172;53.550;9.964;2023-11-19T07:02:05;11.10;99.90
37285;DHT22;23172;53.550;9.964;2023-11-19T07:07:07;11.10;99.90
37285;DHT22;23172;53.550;9.964;2023-11-19T07:12:08;11.20;99.90
37285;DHT22;23172;53.550;9.964;2023-11-19T07:17:12;11.20;99.90
37285;DHT22;23172;53.550;9.964;2023-11-19T07:22:14;11.30;99.90
37285;DHT22;23172;53.550;9.964;2023-11-19T07:27:16;11.30;99.90
37285;DHT22;23172;53.550;9.964;2023-11-19T07:32:19;11.40;99.90
37285;DHT22;23172;53.550;9.964;2023-11-19T07:37:21;11.40;99.90
37285;DHT22;23172;53.550;9.964;2023-11-19T07:42:23;11.50;99.90
37285;DHT22;23172;53.550;9.964;2023-11-19T07:47:26;11.50;99.90
37285;DHT22;23172;53.550;9.964;2023-11-19T07:52:29;11.50;99.90
37285;DHT22;23172;53.550;9.964;2023-11-19T07:57:31;11.60;99.90
37285;DHT22;23172;53.550;9.964;2023-11-19T08:02:34;11.70;99.90
37285;DHT22;23172;53.550;9.964;2023-11-19T08:07:36;11.70;99.90
37285;DHT22;23172;53.550;9.964;2023-11-19T08:12:38;11.70;99.90
37285;DHT22;23172;53.550;9.964;2023-11-19T08:17:41;11.80;99.90
37285;DHT22;23172;53.550;9.964;2023-11-19T08:22:43;11.80;99.90
37285;DHT22;23172;53.550;9.964;2023-11-19T08:27:44;11.80;99.90
37285;DHT22;23172;53.550;9.964;2023-11-19T08:32:48;11.90;99.90
37285;DHT22;23172;53.550;9.964;2023-11-19T08:37:50;12.00;99.90
37285;DHT22;23172;53.550;9.964;2023-11-19T08:42:52;12.10;99.90
37285;DHT22;23172;53.550;9.964;2023-11-19T08:47:56;12.10;99.90
37285;DHT22;23172;53.550;9.964;2023-11-19T08:52:58;12.20;99.90
37285;DHT22;23172;53.550;9.964;2023-11-19T08:58:00;12.20;99.90
37285;DHT22;23172;53.550;9.964;2023-11-19T09:03:04;12.20;99.90
37285;DHT22;23172;53.550;9.964;2023-11-19T09:08:06;12.20;99.90
37285;DHT22;23172;53.550;9.964;2023-11-19T09:13:08;12.30;99.90
37285;DHT22;23172;53.550;9.964;2023-11-19T09:18:12;12.30;99.90
37285;DHT22;23172;53.550;9.964;2023-11-19T09:23:13;12.40;99.90
37285;DHT22;23172;53.550;9.964;2023-11-19T09:28:15;12.40;99.90
37285;DHT22;23172;53.550;9.964;2023-11-19T09:33:18;12.40;99.90
37285;DHT22;23172;53.550;9.964;2023-11-19T09:38:21;12.50;99.90
37285;DHT22;23172;53.550;9.964;2023-11-19T09:43:23;12.70;99.90
37285;DHT22;23172;53.550;9.964;2023-11-19T09:48:26;12.80;99.90
37285;DHT22;23172;53.550;9.964;2023-11-19T09:53:29;12.90;99.90
37285;DHT22;23172;53.550;9.964;2023-11-19T09:58:31;12.80;99.90
37285;DHT22;23172;53.550;9.964;2023-11-19T10:03:34;12.70;99.90
37285;DHT22;23172;53.550;9.964;2023-11-19T10:08:39;12.60;99.90
37285;DHT22;23172;53.550;9.964;2023-11-19T10:13:40;12.50;99.90
37285;DHT22;23172;53.550;9.964;2023-11-19T10:18:45;12.50;99.90
37285;DHT22;23172;53.550;9.964;2023-11-19T10:23:51;12.60;99.90
37285;DHT22;23172;53.550;9.964;2023-11-19T10:44:03;12.50;99.90
37285;DHT22;23172;53.550;9.964;2023-11-19T13:11:48;12.60;99.90
37285;DHT22;23172;53.550;9.964;2023-11-19T13:16:50;13.10;99.90
37285;DHT22;23172;53.550;9.964;2023-11-19T13:21:53;13.20;99.90
37285;DHT22;23172;53.550;9.964;2023-11-19T13:26:55;13.20;99.90
37285;DHT22;23172;53.550;9.964;2023-11-19T13:31:56;13.30;99.90
37285;DHT22;23172;53.550;9.964;2023-11-19T13:37:00;13.20;99.90
37285;DHT22;23172;53.550;9.964;2023-11-19T13:42:02;13.10;99.90
37285;DHT22;23172;53.550;9.964;2023-11-19T13:47:04;13.10;99.90
37285;DHT22;23172;53.550;9.964;2023-11-19T13:52:07;13.00;99.90
37285;DHT22;23172;53.550;9.964;2023-11-19T13:57:09;13.00;99.90
37285;DHT22;23172;53.550;9.964;2023-11-19T14:02:11;13.10;99.90
37285;DHT22;23172;53.550;9.964;2023-11-19T14:07:14;13.20;99.90
37285;DHT22;23172;53.550;9.964;2023-11-19T14:12:16;13.10;99.90
37285;DHT22;23172;53.550;9.964;2023-11-19T14:17:18;13.10;99.90
37285;DHT22;23172;53.550;9.964;2023-11-19T14:22:21;13.00;99.90
37285;DHT22;23172;53.550;9.964;2023-11-19T14:27:23;13.00;99.90
37285;DHT22;23172;53.550;9.964;2023-11-19T14:32:25;13.00;99.90
37285;DHT22;23172;53.550;9.964;2023-11-19T14:37:28;12.90;99.90
37285;DHT22;23172;53.550;9.964;2023-11-19T14:42:31;12.90;99.90
37285;DHT22;23172;53.550;9.964;2023-11-19T14:47:33;12.80;99.90
37285;DHT22;23172;53.550;9.964;2023-11-19T14:52:36;12.70;99.90
37285;DHT22;23172;53.550;9.964;2023-11-19T14:57:38;12.70;99.90
37285;DHT22;23172;53.550;9.964;2023-11-19T15:02:42;12.60;99.90
37285;DHT22;23172;53.550;9.964;2023-11-19T15:07:45;12.60;99.90
37285;DHT22;23172;53.550;9.964;2023-11-19T15:12:49;12.60;99.90
37285;DHT22;23172;53.550;9.964;2023-11-19T15:17:50;12.60;99.90
37285;DHT22;23172;53.550;9.964;2023-11-19T15:22:54;12.60;99.90
37285;DHT22;23172;53.550;9.964;2023-11-19T15:27:56;12.60;99.90
37285;DHT22;23172;53.550;9.964;2023-11-19T15:32:58;12.60;99.90
37285;DHT22;23172;53.550;9.964;2023-11-19T15:38:01;12.50;99.90
37285;DHT22;23172;53.550;9.964;2023-11-19T15:43:04;12.50;99.90
37285;DHT22;23172;53.550;9.964;2023-11-19T15:48:07;12.50;99.90
37285;DHT22;23172;53.550;9.964;2023-11-19T15:53:10;12.40;99.90
37285;DHT22;23172;53.550;9.964;2023-11-19T15:58:12;12.40;99.90
37285;DHT22;23172;53.550;9.964;2023-11-19T16:03:14;12.30;99.90
37285;DHT22;23172;53.550;9.964;2023-11-19T16:08:17;12.30;99.90
37285;DHT22;23172;53.550;9.964;2023-11-19T16:13:19;12.30;99.90
37285;DHT22;23172;53.550;9.964;2023-11-19T16:18:22;12.30;99.90
37285;DHT22;23172;53.550;9.964;2023-11-19T16:23:25;12.30;99.90
37285;DHT22;23172;53.550;9.964;2023-11-19T16:28:28;12.30;99.90
37285;DHT22;23172;53.550;9.964;2023-11-19T16:33:30;12.20;99.90
37285;DHT22;23172;53.550;9.964;2023-11-19T16:38:36;12.20;99.90
37285;DHT22;23172;53.550;9.964;2023-11-19T16:43:38;12.10;99.90
37285;DHT22;23172;53.550;9.964;2023-11-19T16:48:40;12.10;99.90
37285;DHT22;23172;53.550;9.964;2023-11-19T16:53:47;12.10;99.90
37285;DHT22;23172;53.550;9.964;2023-11-19T16:58:49;12.10;99.90
37285;DHT22;23172;53.550;9.964;2023-11-19T17:03:51;12.00;99.90
37285;DHT22;23172;53.550;9.964;2023-11-19T17:08:54;12.00;99.90
37285;DHT22;23172;53.550;9.964;2023-11-19T17:13:56;12.00;99.90
37285;DHT22;23172;53.550;9.964;2023-11-19T17:18:58;12.00;99.90
37285;DHT22;23172;53.550;9.964;2023-11-19T17:24:01;11.90;99.90
37285;DHT22;23172;53.550;9.964;2023-11-19T17:29:03;11.90;99.90
37285;DHT22;23172;53.550;9.964;2023-11-19T17:34:05;11.80;99.90
37285;DHT22;23172;53.550;9.964;2023-11-19T17:39:08;11.70;99.90
37285;DHT22;23172;53.550;9.964;2023-11-19T17:44:11;11.70;99.90
37285;DHT22;23172;53.550;9.964;2023-11-19T17:49:13;11.70;99.90
37285;DHT22;23172;53.550;9.964;2023-11-19T17:54:16;11.70;99.90
37285;DHT22;23172;53.550;9.964;2023-11-19T17:59:19;11.70;99.90
37285;DHT22;23172;53.550;9.964;2023-11-19T18:04:25;11.70;99.90
37285;DHT22;23172;53.550;9.964;2023-11-19T18:09:28;11.70;99.90
37285;DHT22;23172;53.550;9.964;2023-11-19T18:14:30;11.70;99.90
37285;DHT22;23172;53.550;9.964;2023-11-19T18:19:32;11.60;99.90
37285;DHT22;23172;53.550;9.964;2023-11-19T18:24:35;11.60;99.90
37285;DHT22;23172;53.550;9.964;2023-11-19T18:29:39;11.60;99.90
37285;DHT22;23172;53.550;9.964;2023-11-19T18:34:41;11.60;99.90
37285;DHT22;23172;53.550;9.964;2023-11-19T18:39:44;11.70;99.90
37285;DHT22;23172;53.550;9.964;2023-11-19T18:44:46;11.70;99.90
37285;DHT22;23172;53.550;9.964;2023-11-19T18:49:48;11.70;99.90
37285;DHT22;23172;53.550;9.964;2023-11-19T18:54:53;11.80;99.90
37285;DHT22;23172;53.550;9.964;2023-11-19T18:59:55;11.80;99.90
37285;DHT22;23172;53.550;9.964;2023-11-19T19:04:56;11.80;99.90
37285;DHT22;23172;53.550;9.964;2023-11-19T19:10:00;11.80;99.90
37285;DHT22;23172;53.550;9.964;2023-11-19T19:15:03;11.80;99.90
37285;DHT22;23172;53.550;9.964;2023-11-19T19:20:06;11.90;99.90
37285;DHT22;23172;53.550;9.964;2023-11-19T19:25:12;11.90;99.90
37285;DHT22;23172;53.550;9.964;2023-11-19T19:30:14;11.90;99.90
37285;DHT22;23172;53.550;9.964;2023-11-19T19:35:16;12.00;99.90
37285;DHT22;23172;53.550;9.964;2023-11-19T19:40:19;12.00;99.90
37285;DHT22;23172;53.550;9.964;2023-11-19T19:45:21;12.00;99.90
37285;DHT22;23172;53.550;9.964;2023-11-19T19:50:23;12.00;99.90
37285;DHT22;23172;53.550;9.964;2023-11-19T19:55:26;12.00;99.90
37285;DHT22;23172;53.550;9.964;2023-11-19T20:00:31;12.00;99.90
37285;DHT22;23172;53.550;9.964;2023-11-19T20:05:33;12.10;99.90
37285;DHT22;23172;53.550;9.964;2023-11-19T20:10:36;12.00;99.90
37285;DHT22;23172;53.550;9.964;2023-11-19T20:15:38;12.00;99.90
37285;DHT22;23172;53.550;9.964;2023-11-19T20:20:41;12.10;99.90
37285;DHT22;23172;53.550;9.964;2023-11-19T20:25:45;12.10;99.90
37285;DHT22;23172;53.550;9.964;2023-11-19T20:30:47;12.10;99.90
37285;DHT22;23172;53.550;9.964;2023-11-19T20:35:49;12.00;99.90
37285;DHT22;23172;53.550;9.964;2023-11-19T20:40:52;12.00;99.90
37285;DHT22;23172;53.550;9.964;2023-11-19T20:45:54;12.10;99.90
37285;DHT22;23172;53.550;9.964;2023-11-19T20:50:56;12.10;99.90
37285;DHT22;23172;53.550;9.964;2023-11-19T20:56:01;12.10;99.90
37285;DHT22;23172;53.550;9.964;2023-11-19T21:01:04;12.10;99.90
37285;DHT22;23172;53.550;9.964;2023-11-19T21:06:06;12.10;99.90
37285;DHT22;23172;53.550;9.964;2023-11-19T21:11:10;12.10;99.90
37285;DHT22;23172;53.550;9.964;2023-11-19T21:16:11;12.10;99.90
37285;DHT22;23172;53.550;9.964;2023-11-19T21:21:13;12.10;99.90
37285;DHT22;23172;53.550;9.964;2023-11-19T21:26:17;12.10;99.90
37285;DHT22;23172;53.550;9.964;2023-11-19T21:31:19;12.10;99.90
37285;DHT22;23172;53.550;9.964;2023-11-19T21:36:21;12.10;99.90
37285;DHT22;23172;53.550;9.964;2023-11-19T21:41:26;12.10;99.90
37285;DHT22;23172;53.550;9.964;2023-11-19T21:46:30;12.10;99.90
37285;DHT22;23172;53.550;9.964;2023-11-19T21:51:38;12.10;99.90
37285;DHT22;23172;53.550;9.964;2023-11-19T21:56:41;12.20;99.90
37285;DHT22;23172;53.550;9.964;2023-11-19T22:01:43;12.20;99.90
37285;DHT22;23172;53.550;9.964;2023-11-19T22:06:45;12.20;99.90
37285;DHT22;23172;53.550;9.964;2023-11-19T22:11:49;12.10;99.90
37285;DHT22;23172;53.550;9.964;2023-11-19T22:16:50;12.20;99.90
37285;DHT22;23172;53.550;9.964;2023-11-19T22:21:52;12.20;99.90
37285;DHT22;23172;53.550;9.964;2023-11-19T22:26:55;12.20;99.90
37285;DHT22;23172;53.550;9.964;2023-11-19T22:31:57;12.20;99.90
37285;DHT22;23172;53.550;9.964;2023-11-19T22:36:59;12.20;99.90
37285;DHT22;23172;53.550;9.964;2023-11-19T22:42:02;12.20;99.90
37285;DHT22;23172;53.550;9.964;2023-11-19T22:47:05;12.20;99.90
37285;DHT22;23172;53.550;9.964;2023-11-19T22:52:08;12.20;99.90
37285;DHT22;23172;53.550;9.964;2023-11-19T22:57:11;12.20;99.90
37285;DHT22;23172;53.550;9.964;2023-11-19T23:02:13;12.30;99.90
37285;DHT22;23172;53.550;9.964;2023-11-19T23:07:15;12.20;99.90
37285;DHT22;23172;53.550;9.964;2023-11-19T23:12:18;12.20;99.90
37285;DHT22;23172;53.550;9.964;2023-11-19T23:17:20;12.30;99.90
37285;DHT22;23172;53.550;9.964;2023-11-19T23:22:22;12.30;99.90
37285;DHT22;23172;53.550;9.964;2023-11-19T23:27:25;12.30;99.90
37285;DHT22;23172;53.550;9.964;2023-11-19T23:32:27;12.30;99.90
37285;DHT22;23172;53.550;9.964;2023-11-19T23:37:29;12.30;99.90
37285;DHT22;23172;53.550;9.964;2023-11-19T23:42:32;12.30;99.90
37285;DHT22;23172;53.550;9.964;2023-11-19T23:47:34;12.30;99.90
37285;DHT22;23172;53.550;9.964;2023-11-19T23:52:35;12.30;99.90
37285;DHT22;23172;53.550;9.964;2023-11-19T23:57:39;12.30;99.90
